Sv.knyaz Vladimir — UBKI2 — position and weather

sailwx.info

Track history (hours):
 
Tides and Currents Weather Stations Pressure Air Temp Water Temp Dewpoint Dewpoint Depression Visibility Wind Speed Wind Dir Waves Ship Positions

Sv.knyaz Vladimir

Last reported at 2017-May-23 00:34 UTC. Time now 2017-May-29 15:23 UTC.
Position N 45°10' E 036°29'.

Length 128 m; draft 3.9 m.

Type: Cargo ship. MMSI: 273350360.

Date/timePositionNaut miles runAvg speedWind from/ knotsBaromVisibWave heightAir tempDewpointWater temp
2017-May-23 00:34N 45°10' E 036°29'1 8.5
2017-May-23 00:30N 45°10' E 036°29'4 8.2
2017-May-22 23:59N 45°15' E 036°28'4 7.6
2017-May-22 23:31N 45°18' E 036°29'4 8.5
2017-May-22 23:00N 45°20' E 036°35'4 8.1
2017-May-22 22:30N 45°22' E 036°40'4 8.8
2017-May-22 22:00N 45°26' E 036°41'5 9.0
2017-May-22 21:30N 45°30' E 036°44'  
2017-May-14 12:53N 45°33' E 036°48'4 8.6
2017-May-14 12:28N 45°30' E 036°45'4 8.5
2017-May-14 12:01N 45°27' E 036°42'4 8.6
2017-May-14 11:31N 45°23' E 036°40'4 7.4
2017-May-14 11:01N 45°20' E 036°36'4 8.3
2017-May-14 10:30N 45°19' E 036°31'5 6.6
2017-May-14 09:43N 45°14' E 036°29'2 8.4
2017-May-14 09:30N 45°12' E 036°30'1 1.6
2017-May-14 09:00N 45°11' E 036°30'0 0.1
2017-May-14 08:30N 45°11' E 036°30'0 0.1
2017-May-14 07:17N 45°11' E 036°31'2 7.2
2017-May-14 07:00N 45°10' E 036°33'1 1.2
2017-May-14 06:22N 45°09' E 036°34'0 0.1
2017-May-14 05:58N 45°09' E 036°34'0 0.0
2017-May-14 01:32N 45°09' E 036°34'0 0.0
2017-May-14 01:30N 45°09' E 036°34'0 0.0
2017-May-13 22:03N 45°10' E 036°34'0 0.0
2017-May-13 20:09N 45°10' E 036°34'0 1.1
2017-May-13 20:00N 45°10' E 036°33'2 4.5
2017-May-13 19:30N 45°11' E 036°31'4 7.8
2017-May-13 19:00N 45°15' E 036°28'3 6.2
2017-May-13 18:30N 45°18' E 036°29'4 7.8
2017-May-13 18:00N 45°20' E 036°34'4 8.5
2017-May-13 17:30N 45°21' E 036°39'4 7.4
2017-May-13 17:00N 45°25' E 036°41'3 6.8
2017-May-13 16:30N 45°28' E 036°39'1 1.0
2017-May-13 15:56N 45°28' E 036°38'0 0.0
2017-May-13 15:29N 45°28' E 036°38'0 0.0
2017-May-13 14:59N 45°28' E 036°38'0 0.0
2017-May-13 14:29N 45°28' E 036°38'0 0.0
2017-May-13 13:29N 45°28' E 036°38'0 0.0
2017-May-13 12:50N 45°28' E 036°38'0 0.0
2017-May-13 12:20N 45°28' E 036°38'0 0.0
2017-May-13 11:59N 45°28' E 036°38'0 0.0
2017-May-13 11:20N 45°28' E 036°38'0 0.0
2017-May-13 10:59N 45°28' E 036°38'0 0.0
2017-May-13 10:29N 45°28' E 036°38'0 0.0
2017-May-13 09:59N 45°28' E 036°38'0 0.0
2017-May-13 09:29N 45°28' E 036°38'0 0.0
2017-May-13 08:53N 45°28' E 036°38'0 0.0
2017-May-13 08:26N 45°28' E 036°38'0 0.0
2017-May-13 07:59N 45°28' E 036°38'0 0.0
2017-May-13 07:29N 45°28' E 036°38'0 0.0
2017-May-13 06:59N 45°28' E 036°38'0 0.0
2017-May-13 06:29N 45°28' E 036°38'0 0.0
2017-May-13 05:59N 45°28' E 036°38'0 0.0
2017-May-13 05:29N 45°28' E 036°38'0 0.0
2017-May-13 04:56N 45°28' E 036°38'0 0.0
2017-May-13 04:20N 45°28' E 036°38'0 0.0
2017-May-13 03:56N 45°28' E 036°38'0 0.0
2017-May-13 03:29N 45°28' E 036°38'0 0.0
2017-May-13 02:59N 45°28' E 036°39'0 0.0
2017-May-13 02:29N 45°28' E 036°39'0 0.0
2017-May-13 01:59N 45°28' E 036°39'0 0.0
2017-May-13 01:29N 45°28' E 036°39'0 0.0
2017-May-13 00:50N 45°28' E 036°39'  
Track history (hours):
 
Tides and Currents Weather Stations Pressure Air Temp Water Temp Dewpoint Dewpoint Depression Visibility Wind Speed Wind Dir Waves Ship Positions

Sv.knyaz Vladimir

Last reported at 2017-May-23 00:34 UTC. Time now 2017-May-29 15:23 UTC.
Position N 45°10' E 036°29'.

Length 128 m; draft 3.9 m.

Type: Cargo ship. MMSI: 273350360.

Date/timePositionNaut miles runAvg speedWind from/ knotsBaromVisibWave heightAir tempDewpointWater temp
2017-May-23 00:34N 45°10' E 036°29'1 8.5
2017-May-23 00:30N 45°10' E 036°29'4 8.2
2017-May-22 23:59N 45°15' E 036°28'4 7.6
2017-May-22 23:31N 45°18' E 036°29'4 8.5
2017-May-22 23:00N 45°20' E 036°35'4 8.1
2017-May-22 22:30N 45°22' E 036°40'4 8.8
2017-May-22 22:00N 45°26' E 036°41'5 9.0
2017-May-22 21:30N 45°30' E 036°44'  
2017-May-14 12:53N 45°33' E 036°48'4 8.6
2017-May-14 12:28N 45°30' E 036°45'4 8.5
2017-May-14 12:01N 45°27' E 036°42'4 8.6
2017-May-14 11:31N 45°23' E 036°40'4 7.4
2017-May-14 11:01N 45°20' E 036°36'4 8.3
2017-May-14 10:30N 45°19' E 036°31'5 6.6
2017-May-14 09:43N 45°14' E 036°29'2 8.4
2017-May-14 09:30N 45°12' E 036°30'1 1.6
2017-May-14 09:00N 45°11' E 036°30'0 0.1
2017-May-14 08:30N 45°11' E 036°30'0 0.1
2017-May-14 07:17N 45°11' E 036°31'2 7.2
2017-May-14 07:00N 45°10' E 036°33'1 1.2
2017-May-14 06:22N 45°09' E 036°34'0 0.1
2017-May-14 05:58N 45°09' E 036°34'0 0.0
2017-May-14 01:32N 45°09' E 036°34'0 0.0
2017-May-14 01:30N 45°09' E 036°34'0 0.0
2017-May-13 22:03N 45°10' E 036°34'0 0.0
2017-May-13 20:09N 45°10' E 036°34'0 1.1
2017-May-13 20:00N 45°10' E 036°33'2 4.5
2017-May-13 19:30N 45°11' E 036°31'4 7.8
2017-May-13 19:00N 45°15' E 036°28'3 6.2
2017-May-13 18:30N 45°18' E 036°29'4 7.8
2017-May-13 18:00N 45°20' E 036°34'4 8.5
2017-May-13 17:30N 45°21' E 036°39'4 7.4
2017-May-13 17:00N 45°25' E 036°41'3 6.8
2017-May-13 16:30N 45°28' E 036°39'1 1.0
2017-May-13 15:56N 45°28' E 036°38'0 0.0
2017-May-13 15:29N 45°28' E 036°38'0 0.0
2017-May-13 14:59N 45°28' E 036°38'0 0.0
2017-May-13 14:29N 45°28' E 036°38'0 0.0
2017-May-13 13:29N 45°28' E 036°38'0 0.0
2017-May-13 12:50N 45°28' E 036°38'0 0.0
2017-May-13 12:20N 45°28' E 036°38'0 0.0
2017-May-13 11:59N 45°28' E 036°38'0 0.0
2017-May-13 11:20N 45°28' E 036°38'0 0.0
2017-May-13 10:59N 45°28' E 036°38'0 0.0
2017-May-13 10:29N 45°28' E 036°38'0 0.0
2017-May-13 09:59N 45°28' E 036°38'0 0.0
2017-May-13 09:29N 45°28' E 036°38'0 0.0
2017-May-13 08:53N 45°28' E 036°38'0 0.0
2017-May-13 08:26N 45°28' E 036°38'0 0.0
2017-May-13 07:59N 45°28' E 036°38'0 0.0
2017-May-13 07:29N 45°28' E 036°38'0 0.0
2017-May-13 06:59N 45°28' E 036°38'0 0.0
2017-May-13 06:29N 45°28' E 036°38'0 0.0
2017-May-13 05:59N 45°28' E 036°38'0 0.0
2017-May-13 05:29N 45°28' E 036°38'0 0.0
2017-May-13 04:56N 45°28' E 036°38'0 0.0
2017-May-13 04:20N 45°28' E 036°38'0 0.0
2017-May-13 03:56N 45°28' E 036°38'0 0.0
2017-May-13 03:29N 45°28' E 036°38'0 0.0
2017-May-13 02:59N 45°28' E 036°39'0 0.0
2017-May-13 02:29N 45°28' E 036°39'0 0.0
2017-May-13 01:59N 45°28' E 036°39'0 0.0
2017-May-13 01:29N 45°28' E 036°39'0 0.0
2017-May-13 00:50N 45°28' E 036°39'  

Dump ship's entire track history